createdAt,value
2022-08-05T00:00:26.028Z,99364.31
2022-08-05T00:02:54.129Z,99318.22
2022-08-05T00:06:02.698Z,99320.16
2022-08-05T00:08:34.919Z,99307.47
2022-08-05T00:11:00.942Z,99305.97
2022-08-05T00:13:38.703Z,99296.56
2022-08-05T00:16:09.519Z,99290.78
2022-08-05T00:18:42.214Z,99298.66
2022-08-05T00:21:10.625Z,99301.28
2022-08-05T00:23:46.489Z,99319.34
2022-08-05T00:26:22.129Z,99338.28
2022-08-05T00:28:52.249Z,99334.00
2022-08-05T00:31:54.131Z,99339.53
2022-08-05T00:34:54.424Z,99332.09
2022-08-05T00:37:11.836Z,99323.41
2022-08-05T00:39:44.196Z,99318.41
2022-08-05T00:42:32.622Z,99311.00
2022-08-05T00:45:02.322Z,99301.59
2022-08-05T00:47:53.283Z,99299.28
2022-08-05T00:50:18.490Z,99302.03
2022-08-05T00:52:49.144Z,99285.06
2022-08-05T00:55:17.248Z,99286.03
2022-08-05T00:57:58.582Z,99278.59
2022-08-05T01:00:29.888Z,99267.56
2022-08-05T01:03:00.171Z,99260.78
2022-08-05T01:05:28.929Z,99260.13
2022-08-05T01:08:41.411Z,99252.53
2022-08-05T01:10:52.454Z,99250.16
2022-08-05T01:13:27.502Z,99235.69
2022-08-05T01:16:26.485Z,99230.72
2022-08-05T01:19:00.799Z,99235.13
2022-08-05T01:22:02.539Z,99237.09
2022-08-05T01:24:53.482Z,99241.50
2022-08-05T01:27:36.299Z,99243.16
2022-08-05T01:30:20.919Z,99238.16
2022-08-05T01:33:08.406Z,99241.91
2022-08-05T01:35:51.855Z,99252.25
2022-08-05T01:38:26.884Z,99261.09
2022-08-05T01:40:59.886Z,99261.09
2022-08-05T01:43:30.644Z,99272.41
2022-08-05T01:46:07.507Z,99287.06
2022-08-05T01:48:46.148Z,99292.28
2022-08-05T01:51:19.298Z,99291.59
2022-08-05T01:53:57.571Z,99254.06
2022-08-05T01:58:11.162Z,99220.28
2022-08-05T01:59:22.855Z,99176.72
2022-08-05T02:01:55.412Z,99147.78
2022-08-05T02:04:25.539Z,99107.00
2022-08-05T02:06:53.989Z,99064.41
2022-08-05T02:09:22.114Z,99032.97
2022-08-05T02:12:00.062Z,99007.34
2022-08-05T02:14:32.009Z,98989.59
2022-08-05T02:17:08.036Z,98984.50
2022-08-05T02:19:50.708Z,98994.16
2022-08-05T02:22:25.940Z,99001.84
2022-08-05T02:25:02.891Z,99001.19
2022-08-05T02:27:58.281Z,99008.22
2022-08-05T02:30:23.597Z,99012.47
2022-08-05T02:32:59.857Z,99021.31
2022-08-05T02:35:33.170Z,99009.31
2022-08-05T02:38:09.199Z,98983.16
2022-08-05T02:40:38.556Z,98966.09
2022-08-05T02:43:07.994Z,98959.47
2022-08-05T02:45:51.889Z,98940.78
2022-08-05T02:48:29.435Z,98952.88
2022-08-05T02:51:01.007Z,98965.81
2022-08-05T02:53:39.519Z,98963.34
2022-08-05T02:56:15.682Z,98972.03
2022-08-05T02:58:51.560Z,98987.72
2022-08-05T03:01:27.126Z,98998.19
2022-08-05T03:04:02.253Z,99002.47
2022-08-05T03:06:55.445Z,99018.84
2022-08-05T03:09:27.116Z,99007.97
2022-08-05T03:12:24.481Z,99006.31
2022-08-05T03:14:52.910Z,99018.44
2022-08-05T03:17:20.849Z,99033.19
2022-08-05T03:19:51.311Z,99037.59
2022-08-05T03:22:19.220Z,99030.84
2022-08-05T03:25:02.278Z,99021.63
2022-08-05T03:27:59.228Z,99026.03
2022-08-05T03:30:34.141Z,99026.97
2022-08-05T03:33:03.051Z,99028.91
2022-08-05T03:35:33.717Z,99003.44
2022-08-05T03:38:02.623Z,98984.84
2022-08-05T03:40:31.879Z,98973.03
2022-08-05T03:43:16.060Z,98937.22
2022-08-05T03:45:57.330Z,98921.22
2022-08-05T03:48:27.474Z,98907.63
2022-08-05T03:52:37.935Z,98894.94
2022-08-05T03:55:50.219Z,98889.19
2022-08-05T03:56:47.476Z,98876.38
2022-08-05T03:59:20.999Z,98870.63
2022-08-05T04:01:54.527Z,98842.41
2022-08-05T04:04:28.978Z,98835.13
2022-08-05T04:07:00.151Z,98834.28
2022-08-05T04:09:29.347Z,98836.91
2022-08-05T04:11:57.812Z,98844.75
2022-08-05T04:14:30.265Z,98848.19
2022-08-05T04:17:00.707Z,98831.16
2022-08-05T04:19:29.182Z,98822.75
2022-08-05T04:22:08.180Z,98829.75
2022-08-05T04:24:44.403Z,98839.25
2022-08-05T04:27:13.719Z,98822.22
2022-08-05T04:29:41.656Z,98832.53
2022-08-05T04:32:10.910Z,98844.63
2022-08-05T04:34:42.956Z,98848.06
2022-08-05T04:37:12.899Z,98836.25
2022-08-05T04:39:40.842Z,98826.06
2022-08-05T04:42:10.216Z,98815.06
2022-08-05T04:44:39.041Z,98810.91
2022-08-05T04:47:08.925Z,98810.25
2022-08-05T04:50:02.113Z,98812.84
2022-08-05T04:52:28.525Z,98826.47
2022-08-05T04:54:57.781Z,98843.00
2022-08-05T04:57:29.277Z,98834.59
2022-08-05T04:59:58.947Z,98807.22
2022-08-05T05:02:36.841Z,98786.75
2022-08-05T05:05:16.518Z,98781.78
2022-08-05T05:08:01.444Z,98784.38
2022-08-05T05:10:30.456Z,98799.13
2022-08-05T05:12:58.891Z,98780.41
2022-08-05T05:15:56.451Z,98765.97
2022-08-05T05:18:31.076Z,98777.13
2022-08-05T05:21:03.265Z,98786.72
2022-08-05T05:24:02.343Z,98798.69
2022-08-05T05:26:28.689Z,98809.00
2022-08-05T05:29:02.350Z,98821.94
2022-08-05T05:34:02.624Z,98845.19
2022-08-05T05:36:31.460Z,98858.94
2022-08-05T05:39:03.575Z,98872.53
2022-08-05T05:41:40.504Z,98882.03
2022-08-05T05:44:35.525Z,98891.53
2022-08-05T05:47:04.472Z,98907.06
2022-08-05T05:49:41.319Z,98924.09
2022-08-05T05:52:09.189Z,98943.94
2022-08-05T05:54:50.575Z,98953.28
2022-08-05T05:57:19.604Z,98965.28
2022-08-05T05:59:48.771Z,98990.31
2022-08-05T06:02:17.285Z,98997.88
2022-08-05T06:05:01.376Z,99022.94
2022-08-05T06:07:41.660Z,99039.84
2022-08-05T06:10:12.144Z,99052.91
2022-08-05T06:12:42.128Z,99055.53
2022-08-05T06:15:16.187Z,99082.09
2022-08-05T06:17:53.062Z,99101.81
2022-08-05T06:20:23.201Z,99125.75
2022-08-05T06:22:51.024Z,99147.25
2022-08-05T06:25:59.251Z,99158.38
2022-08-05T06:28:11.814Z,99159.22
2022-08-05T06:30:48.852Z,99179.88
2022-08-05T06:33:19.022Z,99150.00
2022-08-05T06:36:07.803Z,99134.69
2022-08-05T06:38:36.794Z,99119.53
2022-08-05T06:41:08.114Z,99115.13
2022-08-05T06:43:58.967Z,99134.00
2022-08-05T06:46:30.418Z,99160.69
2022-08-05T06:48:59.690Z,99166.63
2022-08-05T06:51:31.087Z,99184.53
2022-08-05T06:54:02.136Z,99187.16
2022-08-05T06:56:34.397Z,99195.81
2022-08-05T06:59:03.922Z,99213.88
2022-08-05T07:01:36.901Z,99243.88
2022-08-05T07:04:05.053Z,99278.09
2022-08-05T07:06:32.960Z,99308.97
2022-08-05T07:09:03.843Z,99332.81
2022-08-05T07:11:36.930Z,99382.72
2022-08-05T07:14:29.612Z,99410.31
2022-08-05T07:17:59.044Z,99418.69
2022-08-05T07:22:37.147Z,99430.81
2022-08-05T07:25:22.547Z,99446.28
2022-08-05T07:28:02.723Z,99456.63
2022-08-05T07:30:38.987Z,99491.81
2022-08-05T07:33:15.508Z,99491.66
2022-08-05T07:36:03.258Z,99484.91
2022-08-05T07:38:35.670Z,99485.88
2022-08-05T07:42:09.231Z,99511.53
2022-08-05T07:44:03.907Z,99528.78
2022-08-05T07:46:33.650Z,99550.28
2022-08-05T07:49:05.987Z,99579.41
2022-08-05T07:51:40.546Z,99575.13
2022-08-05T07:54:18.645Z,99606.03
2022-08-05T07:57:01.197Z,99649.66
2022-08-05T07:59:39.891Z,99708.09
2022-08-05T08:02:15.315Z,99743.47
2022-08-05T08:04:45.121Z,99745.13
2022-08-05T08:07:13.542Z,99755.34
2022-08-05T08:09:41.516Z,99787.94
2022-08-05T08:12:19.890Z,99821.50
2022-08-05T08:15:02.662Z,99834.38
2022-08-05T08:17:32.242Z,99824.97
2022-08-05T08:20:20.995Z,99806.88
2022-08-05T08:22:52.883Z,99833.66
2022-08-05T08:25:26.896Z,99827.59
2022-08-05T08:28:04.154Z,99894.63
2022-08-05T08:30:47.279Z,99922.13
2022-08-05T08:33:15.683Z,99970.22
2022-08-05T08:35:52.751Z,100010.63
2022-08-05T08:38:35.574Z,100010.63
2022-08-05T08:41:08.409Z,100045.88
2022-08-05T08:45:21.242Z,100065.69
2022-08-05T08:46:29.007Z,100057.94
2022-08-05T08:49:07.982Z,100082.00
2022-08-05T08:52:03.773Z,100133.53
2022-08-05T08:54:36.497Z,100189.47
2022-08-05T08:57:06.457Z,100246.22
2022-08-05T08:59:41.829Z,100282.34
2022-08-05T09:02:18.940Z,100266.84
2022-08-05T09:05:16.525Z,100286.78
2022-08-05T09:07:40.016Z,100272.81
2022-08-05T09:10:27.749Z,100302.03
2022-08-05T09:12:57.077Z,100346.91
2022-08-05T09:15:37.102Z,100415.78
2022-08-05T09:18:09.379Z,100465.84
2022-08-05T09:20:38.380Z,100508.00
2022-08-05T09:23:18.697Z,100546.72
2022-08-05T09:26:03.193Z,100619.13
2022-08-05T09:28:34.307Z,100701.00
2022-08-05T09:31:18.136Z,100763.78
2022-08-05T09:33:53.818Z,100778.50
2022-08-05T09:36:27.948Z,100825.13
2022-08-05T09:39:03.844Z,100878.66
2022-08-05T09:41:58.494Z,100968.44
2022-08-05T09:44:40.335Z,100981.38
2022-08-05T09:47:15.589Z,101014.19
2022-08-05T09:50:00.752Z,101054.66
2022-08-05T09:52:32.290Z,101070.34
2022-08-05T09:55:06.514Z,101056.44
2022-08-05T09:57:49.811Z,101055.59
2022-08-05T10:00:24.685Z,101033.22
2022-08-05T10:02:54.815Z,100987.47
2022-08-05T10:05:29.143Z,100938.03
2022-08-05T10:08:34.948Z,100926.91
2022-08-05T10:10:54.447Z,100902.72
2022-08-05T10:13:46.311Z,100888.94
2022-08-05T10:16:31.234Z,100904.53
2022-08-05T10:19:01.205Z,100918.28
2022-08-05T10:21:40.277Z,100953.69
2022-08-05T10:24:11.137Z,100972.75
2022-08-05T10:26:48.855Z,101018.47
2022-08-05T10:29:23.894Z,101072.88
2022-08-05T10:32:55.177Z,101163.66
2022-08-05T10:35:00.826Z,101216.34
2022-08-05T10:37:37.488Z,101285.50
2022-08-05T10:40:28.101Z,101300.25
2022-08-05T10:43:02.519Z,101314.06
2022-08-05T10:45:41.594Z,101325.31
2022-08-05T10:48:39.588Z,101347.75
2022-08-05T10:51:29.047Z,101355.56
2022-08-05T10:54:00.874Z,101394.34
2022-08-05T10:56:31.983Z,101425.63
2022-08-05T10:59:07.345Z,101509.56
2022-08-05T11:01:55.180Z,101569.38
2022-08-05T11:04:31.732Z,101590.97
2022-08-05T11:07:08.081Z,101641.19
2022-08-05T11:09:46.619Z,101687.06
2022-08-05T11:12:50.484Z,101711.25
2022-08-05T11:16:01.008Z,101762.34
2022-08-05T11:18:26.599Z,101803.94
2022-08-05T11:20:55.446Z,101838.72
2022-08-05T11:23:33.321Z,101865.53
2022-08-05T11:26:08.773Z,101910.75
2022-08-05T11:28:48.397Z,101906.19
2022-08-05T11:31:56.361Z,101894.91
2022-08-05T11:34:18.056Z,101913.91
2022-08-05T11:36:52.870Z,101891.41
2022-08-05T11:39:55.560Z,101847.06
2022-08-05T11:42:29.981Z,101756.72
2022-08-05T11:45:05.340Z,101491.63
2022-08-05T11:47:49.655Z,101049.56
2022-08-05T11:50:18.344Z,100610.56
2022-08-05T11:52:48.924Z,100297.03
2022-08-05T11:55:17.496Z,100076.19
2022-08-05T11:58:09.203Z,99941.16
2022-08-05T12:00:38.096Z,99852.53
2022-08-05T12:03:28.903Z,99808.03
2022-08-05T12:06:03.118Z,99794.34
2022-08-05T12:08:34.580Z,99740.22
2022-08-05T12:11:10.094Z,99742.84
2022-08-05T12:13:58.725Z,99752.34
2022-08-05T12:16:29.471Z,99746.28
2022-08-05T12:18:57.375Z,99766.97
2022-08-05T12:21:29.948Z,99758.28
2022-08-05T12:24:04.847Z,99749.88
2022-08-05T12:26:34.095Z,99725.00
2022-08-05T12:29:04.198Z,99710.50
2022-08-05T12:31:46.226Z,99689.06
2022-08-05T12:34:21.492Z,99672.72
2022-08-05T12:36:53.479Z,99629.94
2022-08-05T12:39:23.542Z,99602.59
2022-08-05T12:41:59.359Z,99572.63
2022-08-05T12:44:33.752Z,99521.19
2022-08-05T12:47:03.679Z,99468.31
2022-08-05T12:50:02.393Z,99428.84
2022-08-05T12:52:37.994Z,99352.75
2022-08-05T12:55:22.148Z,99314.25
2022-08-05T12:58:52.742Z,99264.63
2022-08-05T13:02:03.206Z,99218.50
2022-08-05T13:03:41.343Z,99165.47
2022-08-05T13:06:13.651Z,99108.31
2022-08-05T13:08:41.683Z,99086.84
2022-08-05T13:11:59.882Z,99064.69
2022-08-05T13:14:20.082Z,99044.97
2022-08-05T13:16:56.514Z,98986.22
2022-08-05T13:19:26.166Z,98919.59
2022-08-05T13:21:55.984Z,98871.91
2022-08-05T13:24:27.613Z,98825.69
2022-08-05T13:27:17.166Z,98806.19
2022-08-05T13:30:35.220Z,98779.78
2022-08-05T13:32:42.203Z,98773.03
2022-08-05T13:35:15.155Z,98776.47
2022-08-05T13:37:55.464Z,98770.44
2022-08-05T13:40:36.994Z,98770.44
2022-08-05T13:43:12.286Z,98754.22
2022-08-05T13:45:43.318Z,98764.53
2022-08-05T13:48:57.169Z,98767.13
2022-08-05T13:51:06.569Z,98751.75
2022-08-05T13:53:35.130Z,98746.69
2022-08-05T13:56:18.927Z,98736.50
2022-08-05T13:58:53.269Z,98721.94
2022-08-05T14:01:27.390Z,98714.25
2022-08-05T14:04:26.683Z,98709.13
2022-08-05T14:06:58.735Z,98709.97
2022-08-05T14:09:46.463Z,98723.72
2022-08-05T14:12:17.376Z,98737.44
2022-08-05T14:14:45.906Z,98762.06
2022-08-05T14:17:17.769Z,98784.31
2022-08-05T14:19:55.417Z,98788.44
2022-08-05T14:22:25.021Z,98792.03
2022-08-05T14:24:58.666Z,98785.16
2022-08-05T14:27:28.409Z,98779.94
2022-08-05T14:29:56.474Z,98793.66
2022-08-05T14:32:27.992Z,98816.75
2022-08-05T14:34:57.676Z,98815.81
2022-08-05T14:37:45.664Z,98832.16
2022-08-05T14:40:16.935Z,98807.25
2022-08-05T14:42:45.387Z,98842.44
2022-08-05T14:45:13.377Z,98851.53
2022-08-05T14:48:03.416Z,98870.38
2022-08-05T14:50:32.417Z,98892.66
2022-08-05T14:53:00.750Z,98905.31
2022-08-05T14:55:39.342Z,98903.63
2022-08-05T14:58:11.691Z,98893.34
2022-08-05T15:00:59.779Z,98895.94
2022-08-05T15:03:33.023Z,98884.81
2022-08-05T15:06:13.041Z,98872.97
2022-08-05T15:08:59.449Z,98872.16
2022-08-05T15:11:52.527Z,98886.59
2022-08-05T15:14:35.066Z,98885.78
2022-08-05T15:17:09.844Z,98907.22
2022-08-05T15:19:57.082Z,98913.16
2022-08-05T15:22:28.116Z,98912.19
2022-08-05T15:24:56.669Z,98931.00
2022-08-05T15:27:25.682Z,98945.38
2022-08-05T15:29:54.294Z,98968.47
2022-08-05T15:32:27.176Z,98982.09
2022-08-05T15:34:56.836Z,99009.47
2022-08-05T15:38:35.003Z,99047.88
2022-08-05T15:40:59.157Z,99071.00
2022-08-05T15:43:10.804Z,99118.63
2022-08-05T15:45:45.627Z,99175.09
2022-08-05T15:48:14.996Z,99300.75
2022-08-05T15:50:45.586Z,99414.53
2022-08-05T15:53:15.560Z,99568.59
2022-08-05T15:56:02.299Z,99717.63
2022-08-05T15:58:35.437Z,99798.31
2022-08-05T16:01:16.033Z,99808.53
2022-08-05T16:03:48.548Z,99802.47
2022-08-05T16:06:19.881Z,99777.59
2022-08-05T16:08:53.547Z,99802.34
2022-08-05T16:11:43.004Z,99874.34
2022-08-05T16:14:09.801Z,99989.41
2022-08-05T16:16:37.665Z,100057.31
2022-08-05T16:19:06.499Z,100111.34
2022-08-05T16:22:00.776Z,100181.81
2022-08-05T16:24:41.655Z,100229.03
2022-08-05T16:27:16.163Z,100158.41
2022-08-05T16:29:50.329Z,100145.56
2022-08-05T16:32:28.797Z,100118.75
2022-08-05T16:34:58.935Z,100117.88
2022-08-05T16:38:02.620Z,100080.94
2022-08-05T16:40:26.669Z,100050.88
2022-08-05T16:42:57.477Z,99963.19
2022-08-05T16:46:06.703Z,99947.69
2022-08-05T16:48:25.183Z,99902.88
2022-08-05T16:50:54.609Z,99820.53
2022-08-05T16:53:32.343Z,99787.06
2022-08-05T16:56:02.156Z,99749.22
2022-08-05T16:58:30.180Z,99726.00
2022-08-05T17:00:58.087Z,99694.38
2022-08-05T17:03:27.168Z,99650.63
2022-08-05T17:05:59.704Z,99625.59
2022-08-05T17:08:36.189Z,99610.28
2022-08-05T17:11:17.540Z,99570.66
2022-08-05T17:13:45.596Z,99540.56
2022-08-05T17:16:33.018Z,99539.06
2022-08-05T17:19:01.868Z,99502.91
2022-08-05T17:21:35.816Z,99500.16
2022-08-05T17:24:18.498Z,99490.78
2022-08-05T17:26:55.522Z,99481.38
2022-08-05T17:29:33.523Z,99467.59
2022-08-05T17:32:11.412Z,99465.13
2022-08-05T17:34:44.851Z,99447.75
2022-08-05T17:37:39.779Z,99422.09
2022-08-05T17:40:04.634Z,99402.34
2022-08-05T17:42:41.671Z,99379.34
2022-08-05T17:45:17.810Z,99355.34
2022-08-05T17:47:53.444Z,99338.09
2022-08-05T17:50:29.513Z,99321.00
2022-08-05T17:53:02.322Z,99290.97
2022-08-05T17:55:34.345Z,99275.53
2022-08-05T17:58:12.427Z,99265.31
2022-08-05T18:00:45.395Z,99236.97
2022-08-05T18:03:33.233Z,99216.53
2022-08-05T18:06:11.232Z,99191.59
2022-08-05T18:08:45.024Z,99165.84
2022-08-05T18:11:24.534Z,99163.38
2022-08-05T18:14:04.205Z,99149.56
2022-08-05T18:16:33.634Z,99134.16
2022-08-05T18:19:01.681Z,99120.50
2022-08-05T18:22:08.736Z,99113.78
2022-08-05T18:24:17.674Z,99077.69
2022-08-05T18:26:45.542Z,99071.78
2022-08-05T18:29:17.355Z,99060.63
2022-08-05T18:32:00.814Z,99043.56
2022-08-05T18:34:40.752Z,99037.50
2022-08-05T18:37:12.192Z,99000.63
2022-08-05T18:40:31.676Z,98969.94
2022-08-05T18:42:28.772Z,98930.84
2022-08-05T18:44:58.158Z,98868.28
2022-08-05T18:47:28.066Z,98835.97
2022-08-05T18:50:16.354Z,98810.53
2022-08-05T18:52:51.164Z,98771.16
2022-08-05T18:55:21.703Z,98744.63
2022-08-05T18:57:54.079Z,98725.94
2022-08-05T19:00:34.761Z,98704.66
2022-08-05T19:03:04.069Z,98667.13
2022-08-05T19:06:12.179Z,98650.78
2022-08-05T19:08:30.431Z,98629.47
2022-08-05T19:10:59.720Z,98614.25
2022-08-05T19:13:35.624Z,98592.13
2022-08-05T19:16:25.235Z,98581.16
2022-08-05T19:18:56.728Z,98554.66
2022-08-05T19:21:27.427Z,98529.13
2022-08-05T19:24:07.774Z,98510.31
2022-08-05T19:26:54.889Z,98509.63
2022-08-05T19:29:26.544Z,98499.31
2022-08-05T19:32:08.630Z,98495.09
2022-08-05T19:34:39.685Z,98482.28
2022-08-05T19:37:09.913Z,98472.81
2022-08-05T19:39:45.628Z,98462.00
2022-08-05T19:42:19.163Z,98449.94
2022-08-05T19:45:05.957Z,98444.84
2022-08-05T19:47:37.524Z,98443.19
2022-08-05T19:50:07.893Z,98449.22
2022-08-05T19:52:40.195Z,98445.66
2022-08-05T19:56:15.163Z,98447.44
2022-08-05T19:58:14.508Z,98460.38
2022-08-05T20:00:45.211Z,98475.72
2022-08-05T20:03:14.644Z,98484.09
2022-08-05T20:05:50.177Z,98485.06
2022-08-05T20:08:18.515Z,98479.97
2022-08-05T20:10:49.375Z,98485.88
2022-08-05T20:13:18.213Z,98488.38
2022-08-05T20:15:59.637Z,98486.69
2022-08-05T20:18:33.375Z,98460.22
2022-08-05T20:21:05.073Z,98450.88
2022-08-05T20:23:40.342Z,98442.53
2022-08-05T20:26:20.217Z,98426.31
2022-08-05T20:28:50.812Z,98416.19
2022-08-05T20:31:21.753Z,98397.38
2022-08-05T20:33:57.675Z,98383.78
2022-08-05T20:36:25.877Z,98355.50
2022-08-05T20:38:57.974Z,98339.47
2022-08-05T20:41:43.452Z,98310.53
2022-08-05T20:44:17.138Z,98269.97
2022-08-05T20:46:46.259Z,98212.81
2022-08-05T20:49:24.050Z,98171.28
2022-08-05T20:51:54.090Z,98115.09
2022-08-05T20:54:22.354Z,98082.94
2022-08-05T20:56:50.225Z,98048.97
2022-08-05T20:59:26.295Z,98029.41
2022-08-05T21:01:56.471Z,98020.09
2022-08-05T21:04:27.484Z,98014.06
2022-08-05T21:06:55.840Z,98002.31
2022-08-05T21:09:23.812Z,97979.28
2022-08-05T21:12:06.782Z,97948.75
2022-08-05T21:14:39.590Z,97902.91
2022-08-05T21:17:07.520Z,97880.06
2022-08-05T21:19:47.629Z,97852.84
2022-08-05T21:22:21.823Z,97832.47
2022-08-05T21:24:52.359Z,97834.41
2022-08-05T21:27:27.134Z,97817.31
2022-08-05T21:29:56.251Z,97806.19
2022-08-05T21:32:26.777Z,97794.31
2022-08-05T21:35:17.629Z,97771.31
2022-08-05T21:37:47.349Z,97752.91
2022-08-05T21:40:21.672Z,97735.81
2022-08-05T21:42:51.844Z,97721.47
2022-08-05T21:45:24.891Z,97707.94
2022-08-05T21:48:09.327Z,97695.22
2022-08-05T21:50:38.721Z,97680.72
2022-08-05T21:53:16.276Z,97672.25
2022-08-05T21:56:06.440Z,97647.66
2022-08-05T21:58:34.075Z,97638.38
2022-08-05T22:01:05.932Z,97613.78
2022-08-05T22:06:39.755Z,97537.59
2022-08-05T22:09:13.627Z,97518.06
2022-08-05T22:11:46.839Z,97497.81
2022-08-05T22:14:34.553Z,97463.31
2022-08-05T22:17:06.730Z,97401.34
2022-08-05T22:20:00.723Z,97347.19
2022-08-05T22:22:27.946Z,97300.84
2022-08-05T22:25:21.055Z,97249.97
2022-08-05T22:28:11.079Z,97217.16
2022-08-05T22:30:44.064Z,97196.00
2022-08-05T22:33:55.587Z,97160.44
2022-08-05T22:36:15.178Z,97138.66
2022-08-05T22:38:48.125Z,97102.13
2022-08-05T22:41:26.436Z,97068.38
2022-08-05T22:44:06.168Z,97035.53
2022-08-05T22:46:34.004Z,97003.56
2022-08-05T22:49:23.418Z,96981.81
2022-08-05T22:52:06.445Z,96947.09
2022-08-05T22:54:37.910Z,96920.00
2022-08-05T22:57:08.574Z,96908.31
2022-08-05T22:59:45.331Z,96880.41
2022-08-05T23:02:17.385Z,96867.09
2022-08-05T23:04:51.632Z,96840.81
2022-08-05T23:07:21.946Z,96816.50
2022-08-05T23:09:57.251Z,96782.66
2022-08-05T23:12:32.576Z,96766.91
2022-08-05T23:15:03.353Z,96735.47
2022-08-05T23:17:37.678Z,96715.38
2022-08-05T23:20:20.577Z,96685.88
2022-08-05T23:22:55.993Z,96665.78
2022-08-05T23:25:51.589Z,96649.75
2022-08-05T23:28:15.962Z,96638.91
2022-08-05T23:30:53.556Z,96630.47
2022-08-05T23:34:02.953Z,96625.63
2022-08-05T23:36:13.667Z,96605.22
2022-08-05T23:38:42.836Z,96593.56
2022-08-05T23:41:12.952Z,96569.09
2022-08-05T23:44:05.855Z,96554.03
2022-08-05T23:46:29.650Z,96526.16
2022-08-05T23:49:00.213Z,96513.72
2022-08-05T23:51:53.755Z,96491.84
2022-08-05T23:54:25.230Z,96471.50
2022-08-05T23:57:03.120Z,96465.63
